createdAt,value
2022-12-25T00:00:54.500Z,183.58
2022-12-25T00:01:54.445Z,183.78
2022-12-25T00:02:54.513Z,182.78
2022-12-25T00:03:54.507Z,182.38
2022-12-25T00:04:54.394Z,182.18
2022-12-25T00:05:54.369Z,181.58
2022-12-25T00:06:54.361Z,181.78
2022-12-25T00:07:54.360Z,180.99
2022-12-25T00:08:54.360Z,180.99
2022-12-25T00:09:54.329Z,180.40
2022-12-25T00:10:54.316Z,181.98
2022-12-25T00:11:54.324Z,181.19
2022-12-25T00:12:54.321Z,182.18
2022-12-25T00:13:54.275Z,180.80
2022-12-25T00:14:54.276Z,181.19
2022-12-25T00:15:54.315Z,180.80
2022-12-25T00:16:54.250Z,180.99
2022-12-25T00:17:54.266Z,179.24
2022-12-25T00:18:54.248Z,178.86
2022-12-25T00:19:54.222Z,178.29
2022-12-25T00:20:54.209Z,177.53
2022-12-25T00:21:54.224Z,176.59
2022-12-25T00:22:54.218Z,174.19
2022-12-25T00:23:54.193Z,170.80
2022-12-25T00:24:54.165Z,171.15
2022-12-25T00:25:54.148Z,169.76
2022-12-25T00:26:54.161Z,168.56
2022-12-25T00:27:54.159Z,168.22
2022-12-25T00:28:54.136Z,165.71
2022-12-25T00:29:54.120Z,165.71
2022-12-25T00:30:54.090Z,165.39
2022-12-25T00:31:54.117Z,162.96
2022-12-25T00:32:54.093Z,162.65
2022-12-25T00:33:54.084Z,162.17
2022-12-25T00:34:54.055Z,160.92
2022-12-25T00:35:54.043Z,160.61
2022-12-25T00:36:54.066Z,158.63
2022-12-25T00:37:54.051Z,159.99
2022-12-25T00:38:54.013Z,159.38
2022-12-25T00:39:54.020Z,158.78
2022-12-25T00:40:53.993Z,159.38
2022-12-25T00:41:53.994Z,158.18
2022-12-25T00:42:53.987Z,157.88
2022-12-25T00:43:53.962Z,158.02
2022-12-25T00:44:53.935Z,157.73
2022-12-25T00:45:53.955Z,157.28
2022-12-25T00:46:53.957Z,156.98
2022-12-25T00:47:53.935Z,157.58
2022-12-25T00:48:53.906Z,157.13
2022-12-25T00:49:53.916Z,156.98
2022-12-25T00:50:53.872Z,157.13
2022-12-25T00:51:53.881Z,156.10
2022-12-25T00:52:53.882Z,155.52
2022-12-25T00:53:53.865Z,155.81
2022-12-25T00:54:53.838Z,155.09
2022-12-25T00:55:53.834Z,155.52
2022-12-25T00:56:53.827Z,154.80
2022-12-25T00:57:53.812Z,154.80
2022-12-25T00:58:53.804Z,154.80
2022-12-25T00:59:53.790Z,153.80
2022-12-25T01:00:53.800Z,154.37
2022-12-25T01:01:53.934Z,153.52
2022-12-25T01:02:53.917Z,153.24
2022-12-25T01:03:53.747Z,153.24
2022-12-25T01:04:53.733Z,153.10
2022-12-25T01:05:53.716Z,153.38
2022-12-25T01:06:53.701Z,153.94
2022-12-25T01:07:53.695Z,154.37
2022-12-25T01:08:53.723Z,154.94
2022-12-25T01:09:53.664Z,154.94
2022-12-25T01:10:53.662Z,155.09
2022-12-25T01:11:53.645Z,155.81
2022-12-25T01:12:53.642Z,155.23
2022-12-25T01:13:53.659Z,156.25
2022-12-25T01:14:53.614Z,155.81
2022-12-25T01:15:53.647Z,155.52
2022-12-25T01:16:53.670Z,155.09
2022-12-25T01:17:53.597Z,154.94
2022-12-25T01:18:53.603Z,154.37
2022-12-25T01:19:53.588Z,154.09
2022-12-25T01:20:53.555Z,154.51
2022-12-25T01:21:53.544Z,153.94
2022-12-25T01:22:53.530Z,154.51
2022-12-25T01:23:53.529Z,154.51
2022-12-25T01:24:53.513Z,154.66
2022-12-25T01:25:53.504Z,154.37
2022-12-25T01:26:53.479Z,154.09
2022-12-25T01:27:54.154Z,151.98
2022-12-25T01:28:53.469Z,152.96
2022-12-25T01:29:53.444Z,153.38
2022-12-25T01:30:53.449Z,152.82
2022-12-25T01:31:53.567Z,151.98
2022-12-25T01:32:53.418Z,152.68
2022-12-25T01:33:53.429Z,151.29
2022-12-25T01:34:56.217Z,152.26
2022-12-25T01:35:53.395Z,151.57
2022-12-25T01:36:53.396Z,151.15
2022-12-25T01:37:53.367Z,150.88
2022-12-25T01:38:53.366Z,150.61
2022-12-25T01:39:53.358Z,151.15
2022-12-25T01:40:53.384Z,149.93
2022-12-25T01:41:53.349Z,150.47
2022-12-25T01:42:53.308Z,149.53
2022-12-25T01:43:53.292Z,150.20
2022-12-25T01:44:53.290Z,149.66
2022-12-25T01:45:53.364Z,149.26
2022-12-25T01:46:53.284Z,148.73
2022-12-25T01:47:53.268Z,148.60
2022-12-25T01:48:53.272Z,149.66
2022-12-25T01:49:53.243Z,149.40
2022-12-25T01:50:53.228Z,149.40
2022-12-25T01:51:53.245Z,148.86
2022-12-25T01:52:53.205Z,149.53
2022-12-25T01:53:53.205Z,149.13
2022-12-25T01:54:53.202Z,148.99
2022-12-25T01:55:53.193Z,149.13
2022-12-25T01:56:53.172Z,149.13
2022-12-25T01:57:53.159Z,148.07
2022-12-25T01:58:53.151Z,148.86
2022-12-25T01:59:53.153Z,148.46
2022-12-25T02:00:53.164Z,148.86
2022-12-25T02:01:53.263Z,148.20
2022-12-25T02:02:53.203Z,148.46
2022-12-25T02:03:53.102Z,148.33
2022-12-25T02:04:53.085Z,147.94
2022-12-25T02:05:53.056Z,148.07
2022-12-25T02:06:53.066Z,148.46
2022-12-25T02:07:53.032Z,147.55
2022-12-25T02:08:53.046Z,148.86
2022-12-25T02:09:53.055Z,148.86
2022-12-25T02:10:53.013Z,148.73
2022-12-25T02:11:52.997Z,148.46
2022-12-25T02:12:52.986Z,148.60
2022-12-25T02:13:52.969Z,148.86
2022-12-25T02:14:52.968Z,148.60
2022-12-25T02:15:52.983Z,148.73
2022-12-25T02:16:58.033Z,148.99
2022-12-25T02:17:53.930Z,148.60
2022-12-25T02:18:52.918Z,148.46
2022-12-25T02:19:52.919Z,149.13
2022-12-25T02:20:52.914Z,148.73
2022-12-25T02:21:52.899Z,148.60
2022-12-25T02:22:52.913Z,148.60
2022-12-25T02:23:52.855Z,149.13
2022-12-25T02:25:00.612Z,149.66
2022-12-25T02:25:52.838Z,148.99
2022-12-25T02:26:52.851Z,150.47
2022-12-25T02:27:52.852Z,150.20
2022-12-25T02:28:52.807Z,149.93
2022-12-25T02:29:52.800Z,149.66
2022-12-25T02:30:52.788Z,148.86
2022-12-25T02:31:52.895Z,149.66
2022-12-25T02:32:52.787Z,149.26
2022-12-25T02:33:52.786Z,149.13
2022-12-25T02:34:52.809Z,149.13
2022-12-25T02:35:52.732Z,149.53
2022-12-25T02:36:52.721Z,149.13
2022-12-25T02:37:52.707Z,148.60
2022-12-25T02:38:52.733Z,149.40
2022-12-25T02:39:52.705Z,149.26
2022-12-25T02:40:52.693Z,150.07
2022-12-25T02:41:52.665Z,148.33
2022-12-25T02:42:52.673Z,147.81
2022-12-25T02:43:52.667Z,147.42
2022-12-25T02:44:52.659Z,148.07
2022-12-25T02:45:52.724Z,147.94
2022-12-25T02:46:52.632Z,147.81
2022-12-25T02:47:52.647Z,148.46
2022-12-25T02:48:52.636Z,148.07
2022-12-25T02:49:52.603Z,147.03
2022-12-25T02:50:52.580Z,146.77
2022-12-25T02:51:52.604Z,147.03
2022-12-25T02:52:52.550Z,146.77
2022-12-25T02:53:52.562Z,147.03
2022-12-25T02:54:52.534Z,147.16
2022-12-25T02:55:53.489Z,145.49
2022-12-25T02:56:52.502Z,145.62
2022-12-25T02:57:52.511Z,145.36
2022-12-25T02:58:52.507Z,144.73
2022-12-25T02:59:52.469Z,144.98
2022-12-25T03:00:52.496Z,145.36
2022-12-25T03:01:52.580Z,144.11
2022-12-25T03:02:52.491Z,144.48
2022-12-25T03:03:52.448Z,143.73
2022-12-25T03:04:52.464Z,143.24
2022-12-25T03:05:52.409Z,143.49
2022-12-25T03:06:52.406Z,142.26
2022-12-25T03:07:52.427Z,141.54
2022-12-25T03:08:52.374Z,141.78
2022-12-25T03:09:52.370Z,140.59
2022-12-25T03:10:52.379Z,140.59
2022-12-25T03:11:52.356Z,141.30
2022-12-25T03:12:52.334Z,139.18
2022-12-25T03:13:52.343Z,139.18
2022-12-25T03:14:52.311Z,138.83
2022-12-25T03:15:52.300Z,138.71
2022-12-25T03:16:52.360Z,138.26
2022-12-25T03:17:52.295Z,137.12
2022-12-25T03:18:52.330Z,136.56
2022-12-25T03:19:52.260Z,136.78
2022-12-25T03:20:52.238Z,136.45
2022-12-25T03:21:52.233Z,135.34
2022-12-25T03:22:52.229Z,136.00
2022-12-25T03:23:52.263Z,135.56
2022-12-25T03:24:52.243Z,134.79
2022-12-25T03:25:52.264Z,134.68
2022-12-25T03:26:52.174Z,134.58
2022-12-25T03:27:52.171Z,134.58
2022-12-25T03:28:52.174Z,133.71
2022-12-25T03:29:52.149Z,133.50
2022-12-25T03:30:52.177Z,133.61
2022-12-25T03:31:52.124Z,132.54
2022-12-25T03:32:52.109Z,132.97
2022-12-25T03:33:52.119Z,132.65
2022-12-25T03:34:52.098Z,132.23
2022-12-25T03:35:52.102Z,131.60
2022-12-25T03:36:52.068Z,130.99
2022-12-25T03:37:52.087Z,131.29
2022-12-25T03:38:52.050Z,131.19
2022-12-25T03:39:52.041Z,131.60
2022-12-25T03:40:52.082Z,130.47
2022-12-25T03:41:52.021Z,130.37
2022-12-25T03:42:52.050Z,129.86
2022-12-25T03:43:52.010Z,130.68
2022-12-25T03:44:51.998Z,129.66
2022-12-25T03:45:52.031Z,129.76
2022-12-25T03:46:51.968Z,129.56
2022-12-25T03:47:51.963Z,129.76
2022-12-25T03:48:51.966Z,129.16
2022-12-25T03:49:51.935Z,128.17
2022-12-25T03:50:51.930Z,128.37
2022-12-25T03:51:51.927Z,128.86
2022-12-25T03:52:51.917Z,128.86
2022-12-25T03:53:51.921Z,128.27
2022-12-25T03:54:51.898Z,127.68
2022-12-25T03:55:51.873Z,127.19
2022-12-25T03:56:51.908Z,127.48
2022-12-25T03:57:51.885Z,127.29
2022-12-25T03:58:51.841Z,127.00
2022-12-25T03:59:51.831Z,126.52
2022-12-25T04:00:51.854Z,127.39
2022-12-25T04:01:51.920Z,126.42
2022-12-25T04:02:51.950Z,126.13
2022-12-25T04:03:51.896Z,126.61
2022-12-25T04:04:51.783Z,127.48
2022-12-25T04:05:51.763Z,125.94
2022-12-25T04:06:51.756Z,125.75
2022-12-25T04:07:51.730Z,125.19
2022-12-25T04:08:51.776Z,125.66
2022-12-25T04:09:51.716Z,124.72
2022-12-25T04:10:51.732Z,124.53
2022-12-25T04:11:53.198Z,124.63
2022-12-25T04:12:51.700Z,124.44
2022-12-25T04:13:51.671Z,124.25
2022-12-25T04:14:51.669Z,124.16
2022-12-25T04:15:51.715Z,124.16
2022-12-25T04:16:51.652Z,123.61
2022-12-25T04:17:51.656Z,123.98
2022-12-25T04:18:51.623Z,124.35
2022-12-25T04:19:51.615Z,123.52
2022-12-25T04:20:51.611Z,124.07
2022-12-25T04:21:51.600Z,122.61
2022-12-25T04:22:51.576Z,123.06
2022-12-25T04:23:51.582Z,122.97
2022-12-25T04:24:51.558Z,123.06
2022-12-25T04:25:51.579Z,122.88
2022-12-25T04:26:51.559Z,123.61
2022-12-25T04:27:51.530Z,123.06
2022-12-25T04:28:51.532Z,121.98
2022-12-25T04:29:51.504Z,123.06
2022-12-25T04:30:51.518Z,123.06
2022-12-25T04:31:51.492Z,122.25
2022-12-25T04:32:51.491Z,121.45
2022-12-25T04:33:51.490Z,122.34
2022-12-25T04:34:51.485Z,122.07
2022-12-25T04:35:51.440Z,121.81
2022-12-25T04:36:51.445Z,122.61
2022-12-25T04:37:51.435Z,121.36
2022-12-25T04:38:51.413Z,121.72
2022-12-25T04:39:51.412Z,121.36
2022-12-25T04:40:51.374Z,121.10
2022-12-25T04:41:51.387Z,121.63
2022-12-25T04:42:51.372Z,121.19
2022-12-25T04:43:51.351Z,121.54
2022-12-25T04:44:51.341Z,121.28
2022-12-25T04:45:51.334Z,121.45
2022-12-25T04:46:51.387Z,121.36
2022-12-25T04:47:51.304Z,120.75
2022-12-25T04:48:51.287Z,121.10
2022-12-25T04:49:51.281Z,121.19
2022-12-25T04:50:51.272Z,121.89
2022-12-25T04:51:51.265Z,121.54
2022-12-25T04:52:51.308Z,120.92
2022-12-25T04:53:51.255Z,121.98
2022-12-25T04:54:51.246Z,121.36
2022-12-25T04:55:51.252Z,122.16
2022-12-25T04:56:51.242Z,122.52
2022-12-25T04:57:51.228Z,123.15
2022-12-25T04:58:51.186Z,122.52
2022-12-25T04:59:51.177Z,122.16
2022-12-25T05:00:51.162Z,122.34
2022-12-25T05:01:51.290Z,122.34
2022-12-25T05:02:51.412Z,122.52
2022-12-25T05:03:51.199Z,121.45
2022-12-25T05:04:51.122Z,121.98
2022-12-25T05:05:51.125Z,122.34
2022-12-25T05:06:51.098Z,122.16
2022-12-25T05:07:51.112Z,121.89
2022-12-25T05:08:51.097Z,121.63
2022-12-25T05:09:51.059Z,122.07
2022-12-25T05:10:51.059Z,121.81
2022-12-25T05:11:51.061Z,121.54
2022-12-25T05:12:51.069Z,120.75
2022-12-25T05:13:51.020Z,121.89
2022-12-25T05:14:51.017Z,121.81
2022-12-25T05:15:51.079Z,121.28
2022-12-25T05:16:51.009Z,121.36
2022-12-25T05:17:50.989Z,121.72
2022-12-25T05:18:51.096Z,121.36
2022-12-25T05:19:50.958Z,121.36
2022-12-25T05:20:50.944Z,121.36
2022-12-25T05:21:50.950Z,121.01
2022-12-25T05:22:50.965Z,120.92
2022-12-25T05:23:50.936Z,121.28
2022-12-25T05:24:50.913Z,121.01
2022-12-25T05:25:50.900Z,121.36
2022-12-25T05:26:50.873Z,121.01
2022-12-25T05:27:53.972Z,121.01
2022-12-25T05:28:50.880Z,121.36
2022-12-25T05:29:50.848Z,121.45
2022-12-25T05:30:50.897Z,121.45
2022-12-25T05:31:50.879Z,121.45
2022-12-25T05:32:50.841Z,121.54
2022-12-25T05:33:50.842Z,121.01
2022-12-25T05:34:50.816Z,122.07
2022-12-25T05:35:50.789Z,121.01
2022-12-25T05:36:50.777Z,121.36
2022-12-25T05:37:50.766Z,121.19
2022-12-25T05:38:50.763Z,120.49
2022-12-25T05:39:50.739Z,121.54
2022-12-25T05:40:50.730Z,121.01
2022-12-25T05:41:50.739Z,120.57
2022-12-25T05:42:50.709Z,120.31
2022-12-25T05:43:50.718Z,120.92
2022-12-25T05:44:50.706Z,120.14
2022-12-25T05:45:50.679Z,120.66
2022-12-25T05:46:50.749Z,120.31
2022-12-25T05:47:50.651Z,120.14
2022-12-25T05:48:50.636Z,119.88
2022-12-25T05:49:50.647Z,119.45
2022-12-25T05:50:50.618Z,120.23
2022-12-25T05:51:50.618Z,119.88
2022-12-25T05:52:50.598Z,120.05
2022-12-25T05:53:50.597Z,119.11
2022-12-25T05:54:50.578Z,120.40
2022-12-25T05:55:50.585Z,119.45
2022-12-25T05:56:50.575Z,119.54
2022-12-25T05:57:50.537Z,119.62
2022-12-25T05:58:50.530Z,119.79
2022-12-25T05:59:50.542Z,119.45
2022-12-25T06:00:50.519Z,119.54
2022-12-25T06:01:50.619Z,118.86
2022-12-25T06:02:50.610Z,119.54
2022-12-25T06:03:50.544Z,119.62
2022-12-25T06:04:50.505Z,119.03
2022-12-25T06:05:50.458Z,120.14
2022-12-25T06:06:50.445Z,120.49
2022-12-25T06:07:50.435Z,119.88
2022-12-25T06:08:50.444Z,119.54
2022-12-25T06:09:50.431Z,120.14
2022-12-25T06:10:50.416Z,120.05
2022-12-25T06:11:50.395Z,119.79
2022-12-25T06:12:50.388Z,119.62
2022-12-25T06:13:50.373Z,120.57
2022-12-25T06:14:50.376Z,120.14
2022-12-25T06:15:50.419Z,120.75
2022-12-25T06:16:50.382Z,120.31
2022-12-25T06:17:50.328Z,120.05
2022-12-25T06:18:50.319Z,120.49
2022-12-25T06:19:50.305Z,120.75
2022-12-25T06:20:50.316Z,120.66
2022-12-25T06:21:50.283Z,120.57
2022-12-25T06:22:50.274Z,121.01
2022-12-25T06:23:50.295Z,121.36
2022-12-25T06:24:50.252Z,121.36
2022-12-25T06:25:50.245Z,120.57
2022-12-25T06:26:50.266Z,121.19
2022-12-25T06:27:50.219Z,121.36
2022-12-25T06:28:50.229Z,120.92
2022-12-25T06:29:50.192Z,121.45
2022-12-25T06:30:50.200Z,121.63
2022-12-25T06:31:50.257Z,121.72
2022-12-25T06:32:50.224Z,121.98
2022-12-25T06:33:50.158Z,122.16
2022-12-25T06:34:50.151Z,121.81
2022-12-25T06:35:50.133Z,121.72
2022-12-25T06:36:50.162Z,121.01
2022-12-25T06:37:50.119Z,121.63
2022-12-25T06:38:50.164Z,121.45
2022-12-25T06:39:50.085Z,121.81
2022-12-25T06:40:50.075Z,120.84
2022-12-25T06:41:50.063Z,120.49
2022-12-25T06:42:50.072Z,120.23
2022-12-25T06:43:50.076Z,120.57
2022-12-25T06:44:50.081Z,120.57
2022-12-25T06:45:50.061Z,120.05
2022-12-25T06:46:50.022Z,119.79
2022-12-25T06:47:50.038Z,120.66
2022-12-25T06:48:50.178Z,120.75
2022-12-25T06:49:49.975Z,120.40
2022-12-25T06:50:50.017Z,120.31
2022-12-25T06:51:49.954Z,119.03
2022-12-25T06:52:49.956Z,119.03
2022-12-25T06:53:49.947Z,119.79
2022-12-25T06:54:49.926Z,119.62
2022-12-25T06:55:49.915Z,120.23
2022-12-25T06:56:49.897Z,119.28
2022-12-25T06:57:49.884Z,119.28
2022-12-25T06:58:49.899Z,119.45
2022-12-25T06:59:54.703Z,119.20
2022-12-25T07:00:50.928Z,119.71
2022-12-25T07:01:50.074Z,120.05
2022-12-25T07:02:50.073Z,119.37
2022-12-25T07:03:49.922Z,119.45
2022-12-25T07:04:49.813Z,119.11
2022-12-25T07:05:49.799Z,119.54
2022-12-25T07:06:49.793Z,119.79
2022-12-25T07:07:49.784Z,120.05
2022-12-25T07:08:49.802Z,119.20
2022-12-25T07:09:49.764Z,120.05
2022-12-25T07:10:49.748Z,119.20
2022-12-25T07:11:49.732Z,119.88
2022-12-25T07:12:49.727Z,120.23
2022-12-25T07:13:49.754Z,120.05
2022-12-25T07:14:49.731Z,120.31
2022-12-25T07:15:49.705Z,120.31
2022-12-25T07:16:49.703Z,120.49
2022-12-25T07:17:49.679Z,119.37
2022-12-25T07:18:49.679Z,119.97
2022-12-25T07:19:49.650Z,119.79
2022-12-25T07:20:49.641Z,119.54
2022-12-25T07:21:49.641Z,119.71
2022-12-25T07:22:49.625Z,120.31
2022-12-25T07:23:49.628Z,118.94
2022-12-25T07:24:49.657Z,119.45
2022-12-25T07:25:49.620Z,118.94
2022-12-25T07:26:49.569Z,119.28
2022-12-25T07:27:49.564Z,119.45
2022-12-25T07:28:49.554Z,119.20
2022-12-25T07:29:49.568Z,118.43
2022-12-25T07:30:49.528Z,118.43
2022-12-25T07:31:49.600Z,118.27
2022-12-25T07:32:50.375Z,118.35
2022-12-25T07:33:49.503Z,118.27
2022-12-25T07:34:49.517Z,118.02
2022-12-25T07:35:49.490Z,117.19
2022-12-25T07:36:49.467Z,117.85
2022-12-25T07:37:49.452Z,117.27
2022-12-25T07:38:49.443Z,117.60
2022-12-25T07:39:49.447Z,116.86
2022-12-25T07:40:49.420Z,116.29
2022-12-25T07:41:49.414Z,116.13
2022-12-25T07:42:49.424Z,116.61
2022-12-25T07:43:49.391Z,115.64
2022-12-25T07:44:49.431Z,115.40
2022-12-25T07:45:49.424Z,115.09
2022-12-25T07:46:49.362Z,114.61
2022-12-25T07:47:49.347Z,114.85
2022-12-25T07:48:49.342Z,114.77
2022-12-25T07:49:49.346Z,114.22
2022-12-25T07:50:49.310Z,114.22
2022-12-25T07:51:49.307Z,114.22
2022-12-25T07:52:49.283Z,113.68
2022-12-25T07:53:49.273Z,113.75
2022-12-25T07:54:49.313Z,113.75
2022-12-25T07:55:49.260Z,113.75
2022-12-25T07:56:49.243Z,113.52
2022-12-25T07:57:49.235Z,113.91
2022-12-25T07:58:49.234Z,113.14
2022-12-25T07:59:49.239Z,112.68
2022-12-25T08:00:49.294Z,113.14
2022-12-25T08:01:49.570Z,111.85
2022-12-25T08:02:49.458Z,112.53
2022-12-25T08:03:49.292Z,111.77
2022-12-25T08:04:49.186Z,112.07
2022-12-25T08:05:49.164Z,111.47
2022-12-25T08:06:49.142Z,111.85
2022-12-25T08:07:55.471Z,111.70
2022-12-25T08:08:50.151Z,111.62
2022-12-25T08:09:49.135Z,110.44
2022-12-25T08:10:49.115Z,110.22
2022-12-25T08:11:49.081Z,110.44
2022-12-25T08:12:49.072Z,109.64
2022-12-25T08:13:49.068Z,108.50
2022-12-25T08:14:49.084Z,108.64
2022-12-25T08:15:49.053Z,108.86
2022-12-25T08:16:49.145Z,107.80
2022-12-25T08:17:49.047Z,107.73
2022-12-25T08:18:49.004Z,107.25
2022-12-25T08:19:49.000Z,106.90
2022-12-25T08:20:49.001Z,106.43
2022-12-25T08:21:48.983Z,106.43
2022-12-25T08:22:48.961Z,106.49
2022-12-25T08:23:48.972Z,106.63
2022-12-25T08:24:48.956Z,106.29
2022-12-25T08:25:48.949Z,105.62
2022-12-25T08:26:48.947Z,105.22
2022-12-25T08:27:48.913Z,105.42
2022-12-25T08:28:48.954Z,104.62
2022-12-25T08:29:48.914Z,104.62
2022-12-25T08:30:48.908Z,104.49
2022-12-25T08:31:48.870Z,103.97
2022-12-25T08:32:48.899Z,104.10
2022-12-25T08:33:49.057Z,103.91
2022-12-25T08:34:48.934Z,103.46
2022-12-25T08:35:48.847Z,103.33
2022-12-25T08:36:48.813Z,103.26
2022-12-25T08:37:48.800Z,102.82
2022-12-25T08:38:48.790Z,102.69
2022-12-25T08:39:48.808Z,102.75
2022-12-25T08:40:48.831Z,102.44
2022-12-25T08:41:48.828Z,101.57
2022-12-25T08:42:48.799Z,101.07
2022-12-25T08:43:48.734Z,101.07
2022-12-25T08:44:48.734Z,100.77
2022-12-25T08:45:48.898Z,100.59
2022-12-25T08:46:48.947Z,100.35
2022-12-25T08:47:48.687Z,100.10
2022-12-25T08:48:48.690Z,99.51
2022-12-25T08:49:48.669Z,99.63
2022-12-25T08:50:48.662Z,98.86
2022-12-25T08:51:48.756Z,99.15
2022-12-25T08:52:48.668Z,98.62
2022-12-25T08:53:48.693Z,98.68
2022-12-25T08:54:48.707Z,98.45
2022-12-25T08:55:48.629Z,98.86
2022-12-25T08:56:48.603Z,98.62
2022-12-25T08:57:48.621Z,98.28
2022-12-25T08:58:48.640Z,98.45
2022-12-25T08:59:48.565Z,98.51
2022-12-25T09:00:48.550Z,98.22
2022-12-25T09:01:48.700Z,98.22
2022-12-25T09:02:48.644Z,98.10
2022-12-25T09:03:48.646Z,98.05
2022-12-25T09:04:48.513Z,97.42
2022-12-25T09:05:48.519Z,97.93
2022-12-25T09:06:48.488Z,97.59
2022-12-25T09:07:48.476Z,97.08
2022-12-25T09:08:49.865Z,97.59
2022-12-25T09:09:48.450Z,96.79
2022-12-25T09:10:48.447Z,96.51
2022-12-25T09:11:48.426Z,96.63
2022-12-25T09:12:48.429Z,96.18
2022-12-25T09:13:48.442Z,96.46
2022-12-25T09:14:48.404Z,95.74
2022-12-25T09:15:48.456Z,94.98
2022-12-25T09:16:48.381Z,94.44
2022-12-25T09:17:48.365Z,95.10
2022-12-25T09:18:48.408Z,94.35
2022-12-25T09:19:48.341Z,94.14
2022-12-25T09:20:48.346Z,92.57
2022-12-25T09:21:48.323Z,92.16
2022-12-25T09:22:48.307Z,91.76
2022-12-25T09:23:48.325Z,91.16
2022-12-25T09:24:48.294Z,90.46
2022-12-25T09:25:48.285Z,90.07
2022-12-25T09:26:48.263Z,90.07
2022-12-25T09:27:48.257Z,90.07
2022-12-25T09:28:52.063Z,90.56
2022-12-25T09:29:48.235Z,90.66
2022-12-25T09:30:48.242Z,90.66
2022-12-25T09:31:48.224Z,91.26
2022-12-25T09:32:48.199Z,92.06
2022-12-25T09:33:48.186Z,92.06
2022-12-25T09:34:48.203Z,92.78
2022-12-25T09:35:48.163Z,93.09
2022-12-25T09:36:48.155Z,93.82
2022-12-25T09:37:48.163Z,94.03
2022-12-25T09:38:48.137Z,94.57
2022-12-25T09:39:48.128Z,94.89
2022-12-25T09:40:48.133Z,95.00
2022-12-25T09:41:48.114Z,95.32
2022-12-25T09:42:48.109Z,94.07
2022-12-25T09:43:48.139Z,94.33
2022-12-25T09:44:48.152Z,93.91
2022-12-25T09:45:48.118Z,94.39
2022-12-25T09:46:48.119Z,94.76
2022-12-25T09:47:48.038Z,95.47
2022-12-25T09:48:48.040Z,95.41
2022-12-25T09:49:48.041Z,96.18
2022-12-25T09:50:48.064Z,96.13
2022-12-25T09:51:48.003Z,96.74
2022-12-25T09:52:47.984Z,96.13
2022-12-25T09:53:47.971Z,96.40
2022-12-25T09:54:47.981Z,96.57
2022-12-25T09:55:47.952Z,96.29
2022-12-25T09:56:47.954Z,95.90
2022-12-25T09:57:47.926Z,95.96
2022-12-25T09:58:47.926Z,95.63
2022-12-25T09:59:47.919Z,96.07
2022-12-25T10:00:47.933Z,95.30
2022-12-25T10:01:47.974Z,94.98
2022-12-25T10:02:48.031Z,95.25
2022-12-25T10:03:47.888Z,94.60
2022-12-25T10:04:47.859Z,95.14
2022-12-25T10:05:47.848Z,95.85
2022-12-25T10:06:47.840Z,95.79
2022-12-25T10:07:47.820Z,95.47
2022-12-25T10:08:47.826Z,94.44
2022-12-25T10:09:47.804Z,94.23
2022-12-25T10:10:47.810Z,95.87
2022-12-25T10:11:47.797Z,94.07
2022-12-25T10:12:47.763Z,95.43
2022-12-25T10:13:47.753Z,95.43
2022-12-25T10:14:47.736Z,95.32
2022-12-25T10:15:47.822Z,94.67
2022-12-25T10:16:47.729Z,95.10
2022-12-25T10:17:47.724Z,95.10
2022-12-25T10:18:47.707Z,95.10
2022-12-25T10:19:47.688Z,95.32
2022-12-25T10:20:47.727Z,94.78
2022-12-25T10:21:47.695Z,94.78
2022-12-25T10:22:47.690Z,94.25
2022-12-25T10:23:47.651Z,94.57
2022-12-25T10:24:47.633Z,94.57
2022-12-25T10:25:47.628Z,94.14
2022-12-25T10:26:47.643Z,93.93
2022-12-25T10:27:47.607Z,93.09
2022-12-25T10:28:47.611Z,92.88
2022-12-25T10:29:47.577Z,92.78
2022-12-25T10:30:47.586Z,92.26
2022-12-25T10:31:47.584Z,92.16
2022-12-25T10:32:47.572Z,90.96
2022-12-25T10:33:47.532Z,90.37
2022-12-25T10:34:47.522Z,89.88
2022-12-25T10:35:47.533Z,89.59
2022-12-25T10:36:47.517Z,88.73
2022-12-25T10:37:47.488Z,87.89
2022-12-25T10:38:47.494Z,87.98
2022-12-25T10:39:47.478Z,87.16
2022-12-25T10:40:47.461Z,87.25
2022-12-25T10:41:47.494Z,87.16
2022-12-25T10:42:47.437Z,87.16
2022-12-25T10:43:47.438Z,86.97
2022-12-25T10:44:47.420Z,86.70
2022-12-25T10:45:47.411Z,86.70
2022-12-25T10:46:47.490Z,86.61
2022-12-25T10:47:50.066Z,86.35
2022-12-25T10:48:48.373Z,86.79
2022-12-25T10:49:47.366Z,86.61
2022-12-25T10:50:47.360Z,86.70
2022-12-25T10:51:47.366Z,86.52
2022-12-25T10:52:47.340Z,86.43
2022-12-25T10:53:47.326Z,86.61
2022-12-25T10:54:47.323Z,86.79
2022-12-25T10:55:47.300Z,87.07
2022-12-25T10:56:47.306Z,87.34
2022-12-25T10:57:47.281Z,87.25
2022-12-25T10:58:47.285Z,87.80
2022-12-25T10:59:47.256Z,87.98
2022-12-25T11:00:47.261Z,87.52
2022-12-25T11:01:51.003Z,88.36
2022-12-25T11:02:48.433Z,88.17
2022-12-25T11:03:47.239Z,88.36
2022-12-25T11:04:47.200Z,88.64
2022-12-25T11:05:47.197Z,88.36
2022-12-25T11:06:47.175Z,88.36
2022-12-25T11:07:47.202Z,88.26
2022-12-25T11:08:47.163Z,88.17
2022-12-25T11:09:47.145Z,88.54
2022-12-25T11:10:47.142Z,87.89
2022-12-25T11:11:47.123Z,87.25
2022-12-25T11:12:47.108Z,86.70
2022-12-25T11:13:47.122Z,85.72
2022-12-25T11:14:47.101Z,84.85
2022-12-25T11:15:47.143Z,84.68
2022-12-25T11:16:47.105Z,84.42
2022-12-25T11:17:47.091Z,84.00
2022-12-25T11:18:47.050Z,83.58
2022-12-25T11:19:47.034Z,83.41
2022-12-25T11:20:47.277Z,83.08
2022-12-25T11:21:47.024Z,82.75
2022-12-25T11:22:47.010Z,83.24
2022-12-25T11:23:47.041Z,83.00
2022-12-25T11:24:46.984Z,82.83
2022-12-25T11:25:46.973Z,82.67
2022-12-25T11:26:46.995Z,82.10
2022-12-25T11:27:51.817Z,82.34
2022-12-25T11:28:47.961Z,82.02
2022-12-25T11:29:46.939Z,81.86
2022-12-25T11:30:46.915Z,81.78
2022-12-25T11:31:46.988Z,82.02
2022-12-25T11:32:46.894Z,81.69
2022-12-25T11:33:46.905Z,81.86
2022-12-25T11:34:46.886Z,82.02
2022-12-25T11:35:46.860Z,82.26
2022-12-25T11:36:46.859Z,82.34
2022-12-25T11:37:46.845Z,82.42
2022-12-25T11:38:46.872Z,82.50
2022-12-25T11:39:46.824Z,82.58
2022-12-25T11:40:46.808Z,82.18
2022-12-25T11:41:46.796Z,82.26
2022-12-25T11:42:46.782Z,84.08
2022-12-25T11:43:46.783Z,83.24
2022-12-25T11:44:46.806Z,84.25
2022-12-25T11:45:46.755Z,86.08
2022-12-25T11:46:46.812Z,85.90
2022-12-25T11:47:46.733Z,88.36
2022-12-25T11:48:46.756Z,90.27
2022-12-25T11:49:49.841Z,91.06
2022-12-25T11:50:46.706Z,92.37
2022-12-25T11:51:46.685Z,94.35
2022-12-25T11:52:46.679Z,93.75
2022-12-25T11:53:46.672Z,95.19
2022-12-25T11:54:46.673Z,97.47
2022-12-25T11:55:46.640Z,98.51
2022-12-25T11:56:46.640Z,99.75
2022-12-25T11:57:46.625Z,102.25
2022-12-25T11:58:46.656Z,103.07
2022-12-25T11:59:46.611Z,104.36
2022-12-25T12:00:46.590Z,106.02
2022-12-25T12:01:46.647Z,106.63
2022-12-25T12:02:46.712Z,107.25
2022-12-25T12:03:46.591Z,106.63
2022-12-25T12:04:46.564Z,107.04
2022-12-25T12:05:46.551Z,107.32
2022-12-25T12:06:46.526Z,107.80
2022-12-25T12:07:46.516Z,108.57
2022-12-25T12:08:46.518Z,109.57
2022-12-25T12:09:46.508Z,109.28
2022-12-25T12:10:46.487Z,110.00
2022-12-25T12:11:46.469Z,109.86
2022-12-25T12:12:49.018Z,110.44
2022-12-25T12:13:46.448Z,110.59
2022-12-25T12:14:46.463Z,110.59
2022-12-25T12:15:46.426Z,112.30
2022-12-25T12:16:46.450Z,112.22
2022-12-25T12:17:46.411Z,112.37
2022-12-25T12:18:50.367Z,113.75
2022-12-25T12:19:46.383Z,113.44
2022-12-25T12:20:46.386Z,113.60
2022-12-25T12:21:46.362Z,114.53
2022-12-25T12:22:46.349Z,114.38
2022-12-25T12:23:46.340Z,114.45
2022-12-25T12:24:46.367Z,114.77
2022-12-25T12:25:46.347Z,115.80
2022-12-25T12:26:46.331Z,116.13
2022-12-25T12:27:46.294Z,116.78
2022-12-25T12:28:46.295Z,118.02
2022-12-25T12:29:46.288Z,118.35
2022-12-25T12:30:46.277Z,119.28
2022-12-25T12:31:46.291Z,119.11
2022-12-25T12:32:46.276Z,119.54
2022-12-25T12:33:46.230Z,120.40
2022-12-25T12:34:46.221Z,119.97